sensor_id;sensor_type;location;lat;lon;timestamp;pressure;altitude;pressure_sealevel;temperature;humidity
62847;BME280;49477;35.676;139.586;2023-07-29T00:02:21;101242.69;;;35.43;38.37
62847;BME280;49477;35.676;139.586;2023-07-29T00:04:50;101240.43;;;35.34;38.19
62847;BME280;49477;35.676;139.586;2023-07-29T00:07:19;101241.92;;;35.24;37.92
62847;BME280;49477;35.676;139.586;2023-07-29T00:09:48;101239.85;;;35.46;37.99
62847;BME280;49477;35.676;139.586;2023-07-29T00:12:18;101241.46;;;35.17;38.26
62847;BME280;49477;35.676;139.586;2023-07-29T00:14:47;101235.70;;;35.30;38.27
62847;BME280;49477;35.676;139.586;2023-07-29T00:17:17;101230.45;;;35.47;38.16
62847;BME280;49477;35.676;139.586;2023-07-29T00:19:46;101229.62;;;35.48;37.90
62847;BME280;49477;35.676;139.586;2023-07-29T00:22:16;101225.79;;;35.83;37.65
62847;BME280;49477;35.676;139.586;2023-07-29T00:24:46;101221.95;;;35.46;37.71
62847;BME280;49477;35.676;139.586;2023-07-29T00:27:21;101222.49;;;35.52;37.56
62847;BME280;49477;35.676;139.586;2023-07-29T00:29:50;101213.90;;;35.35;37.63
62847;BME280;49477;35.676;139.586;2023-07-29T00:32:19;101207.26;;;35.29;37.66
62847;BME280;49477;35.676;139.586;2023-07-29T00:34:49;101207.65;;;35.47;37.56
62847;BME280;49477;35.676;139.586;2023-07-29T00:37:18;101203.13;;;35.37;37.52
62847;BME280;49477;35.676;139.586;2023-07-29T00:39:47;101202.87;;;35.71;37.17
62847;BME280;49477;35.676;139.586;2023-07-29T00:42:17;101204.61;;;35.70;37.55
62847;BME280;49477;35.676;139.586;2023-07-29T00:44:46;101204.75;;;35.65;36.96
62847;BME280;49477;35.676;139.586;2023-07-29T00:47:17;101199.23;;;35.02;37.58
62847;BME280;49477;35.676;139.586;2023-07-29T00:49:47;101194.65;;;35.04;37.52
62847;BME280;49477;35.676;139.586;2023-07-29T00:52:16;101197.13;;;35.98;37.31
62847;BME280;49477;35.676;139.586;2023-07-29T00:54:47;101195.09;;;35.46;37.38
62847;BME280;49477;35.676;139.586;2023-07-29T00:57:18;101192.51;;;35.69;36.90
62847;BME280;49477;35.676;139.586;2023-07-29T00:59:54;101187.78;;;35.85;36.55
62847;BME280;49477;35.676;139.586;2023-07-29T01:02:23;101185.18;;;35.74;36.79
62847;BME280;49477;35.676;139.586;2023-07-29T01:04:53;101183.49;;;35.89;36.52
62847;BME280;49477;35.676;139.586;2023-07-29T01:07:29;101182.11;;;36.16;36.30
62847;BME280;49477;35.676;139.586;2023-07-29T01:10:03;101182.19;;;36.10;36.35
62847;BME280;49477;35.676;139.586;2023-07-29T01:12:42;101181.61;;;35.69;36.46
62847;BME280;49477;35.676;139.586;2023-07-29T01:15:18;101181.66;;;35.99;36.43
62847;BME280;49477;35.676;139.586;2023-07-29T01:18:01;101174.38;;;35.89;36.55
62847;BME280;49477;35.676;139.586;2023-07-29T01:20:34;101173.95;;;36.03;36.40
62847;BME280;49477;35.676;139.586;2023-07-29T01:23:05;101171.35;;;36.26;35.89
62847;BME280;49477;35.676;139.586;2023-07-29T01:25:35;101168.20;;;36.03;35.71
62847;BME280;49477;35.676;139.586;2023-07-29T01:28:04;101170.66;;;36.10;35.69
62847;BME280;49477;35.676;139.586;2023-07-29T01:30:39;101168.98;;;36.02;35.51
62847;BME280;49477;35.676;139.586;2023-07-29T01:33:16;101170.00;;;36.18;35.36
62847;BME280;49477;35.676;139.586;2023-07-29T01:35:49;101169.73;;;35.94;35.46
62847;BME280;49477;35.676;139.586;2023-07-29T01:38:23;101163.11;;;36.29;35.24
62847;BME280;49477;35.676;139.586;2023-07-29T01:40:59;101163.44;;;36.18;35.10
62847;BME280;49477;35.676;139.586;2023-07-29T01:43:30;101160.60;;;36.61;35.15
62847;BME280;49477;35.676;139.586;2023-07-29T01:46:00;101157.31;;;36.70;35.18
62847;BME280;49477;35.676;139.586;2023-07-29T01:48:29;101157.19;;;36.38;35.25
62847;BME280;49477;35.676;139.586;2023-07-29T01:50:59;101150.27;;;36.71;35.25
62847;BME280;49477;35.676;139.586;2023-07-29T01:53:28;101148.25;;;36.54;34.38
62847;BME280;49477;35.676;139.586;2023-07-29T01:55:59;101150.13;;;36.08;34.47
62847;BME280;49477;35.676;139.586;2023-07-29T01:58:28;101146.45;;;36.33;34.54
62847;BME280;49477;35.676;139.586;2023-07-29T02:00:58;101144.38;;;36.61;35.10
62847;BME280;49477;35.676;139.586;2023-07-29T02:03:27;101138.99;;;36.40;34.79
62847;BME280;49477;35.676;139.586;2023-07-29T02:05:57;101135.40;;;36.25;34.55
62847;BME280;49477;35.676;139.586;2023-07-29T02:08:26;101136.20;;;36.17;34.39
62847;BME280;49477;35.676;139.586;2023-07-29T02:10:55;101136.94;;;36.37;34.35
62847;BME280;49477;35.676;139.586;2023-07-29T02:13:25;101132.68;;;36.62;34.35
62847;BME280;49477;35.676;139.586;2023-07-29T02:15:55;101128.63;;;36.58;34.30
62847;BME280;49477;35.676;139.586;2023-07-29T02:18:25;101131.43;;;36.37;34.12
62847;BME280;49477;35.676;139.586;2023-07-29T02:20:54;101125.61;;;36.78;34.56
62847;BME280;49477;35.676;139.586;2023-07-29T02:23:24;101121.87;;;36.82;34.35
62847;BME280;49477;35.676;139.586;2023-07-29T02:25:53;101124.97;;;36.39;34.42
62847;BME280;49477;35.676;139.586;2023-07-29T02:28:23;101123.98;;;36.49;34.47
62847;BME280;49477;35.676;139.586;2023-07-29T02:31:12;101126.72;;;36.59;34.28
62847;BME280;49477;35.676;139.586;2023-07-29T02:33:41;101120.05;;;36.32;34.37
62847;BME280;49477;35.676;139.586;2023-07-29T02:36:18;101115.97;;;36.65;34.41
62847;BME280;49477;35.676;139.586;2023-07-29T02:38:47;101113.39;;;36.47;34.25
62847;BME280;49477;35.676;139.586;2023-07-29T02:41:16;101108.12;;;36.61;34.21
62847;BME280;49477;35.676;139.586;2023-07-29T02:43:49;101105.57;;;36.41;34.27
62847;BME280;49477;35.676;139.586;2023-07-29T02:46:19;101110.28;;;36.93;34.03
62847;BME280;49477;35.676;139.586;2023-07-29T02:48:48;101105.90;;;36.48;34.12
62847;BME280;49477;35.676;139.586;2023-07-29T02:51:17;101101.54;;;36.50;33.11
62847;BME280;49477;35.676;139.586;2023-07-29T02:53:47;101092.88;;;36.90;33.13
62847;BME280;49477;35.676;139.586;2023-07-29T02:56:17;101088.65;;;36.64;33.52
62847;BME280;49477;35.676;139.586;2023-07-29T02:58:47;101093.31;;;36.53;33.02
62847;BME280;49477;35.676;139.586;2023-07-29T03:01:16;101088.46;;;36.70;33.22
62847;BME280;49477;35.676;139.586;2023-07-29T03:03:46;101086.64;;;36.77;33.54
62847;BME280;49477;35.676;139.586;2023-07-29T03:06:16;101085.08;;;37.13;32.72
62847;BME280;49477;35.676;139.586;2023-07-29T03:08:46;101087.80;;;36.79;31.90
62847;BME280;49477;35.676;139.586;2023-07-29T03:11:16;101087.45;;;36.72;31.97
62847;BME280;49477;35.676;139.586;2023-07-29T03:13:46;101084.47;;;36.49;31.21
62847;BME280;49477;35.676;139.586;2023-07-29T03:16:16;101087.17;;;36.63;31.22
62847;BME280;49477;35.676;139.586;2023-07-29T03:18:46;101086.19;;;36.65;31.33
62847;BME280;49477;35.676;139.586;2023-07-29T03:21:16;101084.06;;;36.65;31.13
62847;BME280;49477;35.676;139.586;2023-07-29T03:23:46;101076.92;;;36.88;30.89
62847;BME280;49477;35.676;139.586;2023-07-29T03:26:16;101077.87;;;36.71;30.67
62847;BME280;49477;35.676;139.586;2023-07-29T03:28:45;101081.89;;;36.78;31.00
62847;BME280;49477;35.676;139.586;2023-07-29T03:31:15;101081.36;;;36.76;30.97
62847;BME280;49477;35.676;139.586;2023-07-29T03:33:45;101079.62;;;36.86;30.97
62847;BME280;49477;35.676;139.586;2023-07-29T03:36:15;101074.53;;;37.17;30.68
62847;BME280;49477;35.676;139.586;2023-07-29T03:38:44;101072.83;;;37.04;30.87
62847;BME280;49477;35.676;139.586;2023-07-29T03:41:15;101080.06;;;37.08;30.99
62847;BME280;49477;35.676;139.586;2023-07-29T03:43:44;101079.25;;;37.01;30.78
62847;BME280;49477;35.676;139.586;2023-07-29T03:46:14;101076.45;;;37.31;30.62
62847;BME280;49477;35.676;139.586;2023-07-29T03:48:43;101070.95;;;37.32;30.45
62847;BME280;49477;35.676;139.586;2023-07-29T03:51:13;101070.70;;;36.82;30.46
62847;BME280;49477;35.676;139.586;2023-07-29T03:53:42;101072.60;;;37.39;30.36
62847;BME280;49477;35.676;139.586;2023-07-29T03:56:12;101066.89;;;37.33;30.13
62847;BME280;49477;35.676;139.586;2023-07-29T03:58:42;101070.01;;;36.87;29.82
62847;BME280;49477;35.676;139.586;2023-07-29T04:01:11;101070.06;;;37.44;30.25
62847;BME280;49477;35.676;139.586;2023-07-29T04:03:45;101066.37;;;37.23;30.21
62847;BME280;49477;35.676;139.586;2023-07-29T04:06:15;101071.23;;;37.44;30.51
62847;BME280;49477;35.676;139.586;2023-07-29T04:08:44;101067.29;;;37.38;30.64
62847;BME280;49477;35.676;139.586;2023-07-29T04:11:14;101061.62;;;37.41;30.64
62847;BME280;49477;35.676;139.586;2023-07-29T04:13:49;101055.87;;;37.15;30.53
62847;BME280;49477;35.676;139.586;2023-07-29T04:16:19;101053.50;;;37.40;30.53
62847;BME280;49477;35.676;139.586;2023-07-29T04:18:53;101057.74;;;36.98;30.64
62847;BME280;49477;35.676;139.586;2023-07-29T04:21:22;101063.18;;;37.26;30.71
62847;BME280;49477;35.676;139.586;2023-07-29T04:23:56;101055.44;;;37.39;30.80
62847;BME280;49477;35.676;139.586;2023-07-29T04:26:25;101058.04;;;37.56;30.89
62847;BME280;49477;35.676;139.586;2023-07-29T04:28:54;101057.58;;;37.33;31.18
62847;BME280;49477;35.676;139.586;2023-07-29T04:31:25;101059.33;;;37.38;31.23
62847;BME280;49477;35.676;139.586;2023-07-29T04:33:55;101057.67;;;37.73;30.96
62847;BME280;49477;35.676;139.586;2023-07-29T04:36:24;101057.26;;;37.52;31.19
62847;BME280;49477;35.676;139.586;2023-07-29T04:38:58;101055.63;;;37.49;31.22
62847;BME280;49477;35.676;139.586;2023-07-29T04:41:29;101055.05;;;37.47;31.36
62847;BME280;49477;35.676;139.586;2023-07-29T04:43:58;101051.19;;;37.59;31.17
62847;BME280;49477;35.676;139.586;2023-07-29T04:46:28;101050.93;;;37.38;31.05
62847;BME280;49477;35.676;139.586;2023-07-29T04:48:59;101053.16;;;37.57;31.24
62847;BME280;49477;35.676;139.586;2023-07-29T04:51:31;101050.22;;;37.54;31.18
62847;BME280;49477;35.676;139.586;2023-07-29T04:54:00;101045.64;;;37.73;31.07
62847;BME280;49477;35.676;139.586;2023-07-29T04:56:35;101044.66;;;37.25;31.39
62847;BME280;49477;35.676;139.586;2023-07-29T04:59:04;101047.43;;;37.42;31.14
62847;BME280;49477;35.676;139.586;2023-07-29T05:01:38;101046.03;;;37.40;30.96
62847;BME280;49477;35.676;139.586;2023-07-29T05:04:08;101049.08;;;37.80;31.22
62847;BME280;49477;35.676;139.586;2023-07-29T05:06:38;101047.59;;;37.60;31.13
62847;BME280;49477;35.676;139.586;2023-07-29T05:09:15;101045.09;;;37.58;31.01
62847;BME280;49477;35.676;139.586;2023-07-29T05:11:45;101044.43;;;37.57;30.71
62847;BME280;49477;35.676;139.586;2023-07-29T05:14:17;101052.51;;;37.93;30.78
62847;BME280;49477;35.676;139.586;2023-07-29T05:16:46;101055.08;;;37.69;30.66
62847;BME280;49477;35.676;139.586;2023-07-29T05:19:16;101049.92;;;37.94;30.67
62847;BME280;49477;35.676;139.586;2023-07-29T05:21:45;101045.52;;;37.32;30.57
62847;BME280;49477;35.676;139.586;2023-07-29T05:24:15;101051.48;;;37.93;30.63
62847;BME280;49477;35.676;139.586;2023-07-29T05:26:49;101049.78;;;37.61;30.61
62847;BME280;49477;35.676;139.586;2023-07-29T05:29:18;101048.59;;;37.89;30.50
62847;BME280;49477;35.676;139.586;2023-07-29T05:31:48;101044.84;;;37.71;30.52
62847;BME280;49477;35.676;139.586;2023-07-29T05:34:17;101042.15;;;37.49;30.92
62847;BME280;49477;35.676;139.586;2023-07-29T05:36:48;101049.15;;;37.67;30.94
62847;BME280;49477;35.676;139.586;2023-07-29T05:39:17;101053.79;;;37.80;30.73
62847;BME280;49477;35.676;139.586;2023-07-29T05:41:47;101052.13;;;37.64;30.84
62847;BME280;49477;35.676;139.586;2023-07-29T05:44:16;101054.38;;;37.76;30.71
62847;BME280;49477;35.676;139.586;2023-07-29T05:46:46;101052.30;;;37.90;30.73
62847;BME280;49477;35.676;139.586;2023-07-29T05:49:15;101056.41;;;37.87;31.50
62847;BME280;49477;35.676;139.586;2023-07-29T05:51:46;101052.29;;;37.81;31.40
62847;BME280;49477;35.676;139.586;2023-07-29T05:54:17;101055.11;;;37.89;31.47
62847;BME280;49477;35.676;139.586;2023-07-29T05:56:46;101054.08;;;37.55;31.47
62847;BME280;49477;35.676;139.586;2023-07-29T05:59:16;101057.49;;;38.17;31.30
62847;BME280;49477;35.676;139.586;2023-07-29T06:01:45;101064.75;;;37.95;31.69
62847;BME280;49477;35.676;139.586;2023-07-29T06:04:15;101055.82;;;37.85;31.85
62847;BME280;49477;35.676;139.586;2023-07-29T06:06:45;101062.68;;;38.09;31.97
62847;BME280;49477;35.676;139.586;2023-07-29T06:09:14;101057.51;;;38.13;31.82
62847;BME280;49477;35.676;139.586;2023-07-29T06:11:44;101058.15;;;37.70;31.72
62847;BME280;49477;35.676;139.586;2023-07-29T06:14:13;101060.20;;;37.72;32.04
62847;BME280;49477;35.676;139.586;2023-07-29T06:16:43;101054.50;;;37.54;31.90
62847;BME280;49477;35.676;139.586;2023-07-29T06:19:14;101056.48;;;38.20;31.61
62847;BME280;49477;35.676;139.586;2023-07-29T06:21:44;101053.54;;;37.98;31.80
62847;BME280;49477;35.676;139.586;2023-07-29T06:24:13;101051.34;;;38.04;31.86
62847;BME280;49477;35.676;139.586;2023-07-29T06:26:43;101050.26;;;38.03;31.80
62847;BME280;49477;35.676;139.586;2023-07-29T06:29:12;101050.92;;;38.03;31.76
62847;BME280;49477;35.676;139.586;2023-07-29T06:31:42;101047.16;;;37.97;31.95
62847;BME280;49477;35.676;139.586;2023-07-29T06:34:11;101043.16;;;37.79;32.54
62847;BME280;49477;35.676;139.586;2023-07-29T06:36:41;101051.20;;;37.77;32.51
62847;BME280;49477;35.676;139.586;2023-07-29T06:39:17;101057.86;;;37.79;32.28
62847;BME280;49477;35.676;139.586;2023-07-29T06:41:46;101057.13;;;37.85;32.23
62847;BME280;49477;35.676;139.586;2023-07-29T06:44:15;101048.39;;;38.44;32.04
62847;BME280;49477;35.676;139.586;2023-07-29T06:46:45;101048.43;;;38.04;32.09
62847;BME280;49477;35.676;139.586;2023-07-29T06:49:15;101049.30;;;38.03;32.12
62847;BME280;49477;35.676;139.586;2023-07-29T06:51:44;101051.16;;;37.56;32.44
62847;BME280;49477;35.676;139.586;2023-07-29T06:54:15;101051.79;;;37.91;32.39
62847;BME280;49477;35.676;139.586;2023-07-29T06:56:44;101050.04;;;38.13;32.05
62847;BME280;49477;35.676;139.586;2023-07-29T06:59:14;101046.22;;;38.38;31.85
62847;BME280;49477;35.676;139.586;2023-07-29T07:01:43;101046.59;;;38.16;31.63
62847;BME280;49477;35.676;139.586;2023-07-29T07:04:13;101046.80;;;38.21;31.82
62847;BME280;49477;35.676;139.586;2023-07-29T07:06:42;101048.57;;;38.21;31.80
62847;BME280;49477;35.676;139.586;2023-07-29T07:09:12;101043.14;;;38.41;31.81
62847;BME280;49477;35.676;139.586;2023-07-29T07:11:42;101045.21;;;38.21;31.33
62847;BME280;49477;35.676;139.586;2023-07-29T07:14:12;101051.58;;;38.45;31.17
62847;BME280;49477;35.676;139.586;2023-07-29T07:16:41;101053.11;;;38.66;30.95
62847;BME280;49477;35.676;139.586;2023-07-29T07:19:13;101046.80;;;38.52;31.43
62847;BME280;49477;35.676;139.586;2023-07-29T07:21:42;101037.82;;;38.09;31.73
62847;BME280;49477;35.676;139.586;2023-07-29T07:24:11;101041.06;;;38.22;31.78
62847;BME280;49477;35.676;139.586;2023-07-29T07:26:51;101032.42;;;37.99;31.77
62847;BME280;49477;35.676;139.586;2023-07-29T07:29:20;101032.79;;;38.24;31.70
62847;BME280;49477;35.676;139.586;2023-07-29T07:31:52;101029.82;;;38.21;31.73
62847;BME280;49477;35.676;139.586;2023-07-29T07:34:23;101031.25;;;38.29;31.47
62847;BME280;49477;35.676;139.586;2023-07-29T07:36:53;101033.81;;;38.21;31.28
62847;BME280;49477;35.676;139.586;2023-07-29T07:39:22;101033.15;;;38.74;30.87
62847;BME280;49477;35.676;139.586;2023-07-29T07:41:52;101035.82;;;38.83;30.88
62847;BME280;49477;35.676;139.586;2023-07-29T07:44:21;101040.19;;;38.97;30.66
62847;BME280;49477;35.676;139.586;2023-07-29T07:46:51;101038.15;;;38.54;30.73
62847;BME280;49477;35.676;139.586;2023-07-29T07:49:23;101045.03;;;38.58;30.86
62847;BME280;49477;35.676;139.586;2023-07-29T07:51:53;101044.38;;;38.63;30.65
62847;BME280;49477;35.676;139.586;2023-07-29T07:54:25;101050.71;;;38.38;30.58
62847;BME280;49477;35.676;139.586;2023-07-29T07:56:54;101051.67;;;38.68;30.56
62847;BME280;49477;35.676;139.586;2023-07-29T07:59:24;101053.35;;;38.95;30.38
62847;BME280;49477;35.676;139.586;2023-07-29T08:01:53;101050.13;;;38.93;30.30
62847;BME280;49477;35.676;139.586;2023-07-29T08:04:23;101051.46;;;39.18;30.12
62847;BME280;49477;35.676;139.586;2023-07-29T08:06:52;101050.82;;;38.74;29.95
62847;BME280;49477;35.676;139.586;2023-07-29T08:09:22;101050.16;;;39.11;30.10
62847;BME280;49477;35.676;139.586;2023-07-29T08:11:52;101048.60;;;38.84;29.92
62847;BME280;49477;35.676;139.586;2023-07-29T08:14:21;101052.75;;;38.91;29.71
62847;BME280;49477;35.676;139.586;2023-07-29T08:16:51;101057.66;;;38.80;29.71
62847;BME280;49477;35.676;139.586;2023-07-29T08:19:21;101058.06;;;38.86;29.49
62847;BME280;49477;35.676;139.586;2023-07-29T08:21:50;101056.02;;;38.79;29.24
62847;BME280;49477;35.676;139.586;2023-07-29T08:24:20;101062.54;;;38.68;29.35
62847;BME280;49477;35.676;139.586;2023-07-29T08:26:50;101059.70;;;38.61;29.33
62847;BME280;49477;35.676;139.586;2023-07-29T08:29:19;101054.69;;;38.69;29.05
62847;BME280;49477;35.676;139.586;2023-07-29T08:31:50;101061.33;;;38.80;29.02
62847;BME280;49477;35.676;139.586;2023-07-29T08:34:19;101059.35;;;38.69;29.02
62847;BME280;49477;35.676;139.586;2023-07-29T08:36:49;101061.76;;;38.86;28.74
62847;BME280;49477;35.676;139.586;2023-07-29T08:39:18;101062.28;;;38.89;28.99
62847;BME280;49477;35.676;139.586;2023-07-29T08:41:53;101062.14;;;38.60;28.93
62847;BME280;49477;35.676;139.586;2023-07-29T08:44:25;101062.66;;;38.95;29.09
62847;BME280;49477;35.676;139.586;2023-07-29T08:46:57;101068.81;;;38.79;28.87
62847;BME280;49477;35.676;139.586;2023-07-29T08:49:29;101072.25;;;38.85;29.15
62847;BME280;49477;35.676;139.586;2023-07-29T08:51:59;101071.50;;;38.85;29.07
62847;BME280;49477;35.676;139.586;2023-07-29T08:54:30;101076.90;;;39.00;28.93
62847;BME280;49477;35.676;139.586;2023-07-29T08:57:00;101082.74;;;38.97;29.23
62847;BME280;49477;35.676;139.586;2023-07-29T08:59:30;101088.87;;;38.79;29.54
62847;BME280;49477;35.676;139.586;2023-07-29T09:02:00;101088.93;;;38.22;29.62
62847;BME280;49477;35.676;139.586;2023-07-29T09:04:31;101090.65;;;38.72;29.73
62847;BME280;49477;35.676;139.586;2023-07-29T09:07:04;101088.66;;;38.23;30.01
62847;BME280;49477;35.676;139.586;2023-07-29T09:09:34;101091.78;;;38.06;29.99
62847;BME280;49477;35.676;139.586;2023-07-29T09:12:03;101090.97;;;38.50;29.91
62847;BME280;49477;35.676;139.586;2023-07-29T09:14:32;101087.35;;;38.45;30.05
62847;BME280;49477;35.676;139.586;2023-07-29T09:17:02;101085.43;;;38.46;30.17
62847;BME280;49477;35.676;139.586;2023-07-29T09:19:34;101084.07;;;38.52;30.20
62847;BME280;49477;35.676;139.586;2023-07-29T09:22:04;101094.30;;;38.36;30.70
62847;BME280;49477;35.676;139.586;2023-07-29T09:24:33;101088.11;;;38.00;31.03
62847;BME280;49477;35.676;139.586;2023-07-29T09:27:02;101088.43;;;37.96;31.40
62847;BME280;49477;35.676;139.586;2023-07-29T09:29:35;101088.60;;;38.00;31.59
62847;BME280;49477;35.676;139.586;2023-07-29T09:32:19;101083.10;;;37.82;31.66
62847;BME280;49477;35.676;139.586;2023-07-29T09:34:49;101087.83;;;37.85;31.97
62847;BME280;49477;35.676;139.586;2023-07-29T09:37:21;101089.57;;;37.82;32.17
62847;BME280;49477;35.676;139.586;2023-07-29T09:39:50;101087.32;;;37.88;32.33
62847;BME280;49477;35.676;139.586;2023-07-29T09:42:21;101088.90;;;37.73;32.69
62847;BME280;49477;35.676;139.586;2023-07-29T09:44:51;101088.22;;;37.87;32.54
62847;BME280;49477;35.676;139.586;2023-07-29T09:47:24;101087.65;;;37.79;32.70
62847;BME280;49477;35.676;139.586;2023-07-29T09:49:54;101077.98;;;37.72;32.82
62847;BME280;49477;35.676;139.586;2023-07-29T09:52:28;101078.63;;;37.53;33.13
62847;BME280;49477;35.676;139.586;2023-07-29T09:54:58;101077.29;;;37.78;33.30
62847;BME280;49477;35.676;139.586;2023-07-29T09:57:28;101081.11;;;37.31;33.56
62847;BME280;49477;35.676;139.586;2023-07-29T09:59:59;101071.97;;;37.41;33.70
62847;BME280;49477;35.676;139.586;2023-07-29T10:02:28;101076.40;;;37.54;33.95
62847;BME280;49477;35.676;139.586;2023-07-29T10:04:59;101075.04;;;37.25;34.10
62847;BME280;49477;35.676;139.586;2023-07-29T10:07:28;101077.53;;;37.57;33.83
62847;BME280;49477;35.676;139.586;2023-07-29T10:09:59;101077.71;;;36.98;34.12
62847;BME280;49477;35.676;139.586;2023-07-29T10:12:29;101076.77;;;37.05;34.29
62847;BME280;49477;35.676;139.586;2023-07-29T10:15:02;101082.96;;;37.21;34.39
62847;BME280;49477;35.676;139.586;2023-07-29T10:17:33;101086.76;;;37.10;34.40
62847;BME280;49477;35.676;139.586;2023-07-29T10:20:05;101097.69;;;37.29;34.57
62847;BME280;49477;35.676;139.586;2023-07-29T10:22:38;101092.98;;;36.65;34.71
62847;BME280;49477;35.676;139.586;2023-07-29T10:25:10;101090.04;;;37.08;34.58
62847;BME280;49477;35.676;139.586;2023-07-29T10:27:46;101082.88;;;36.69;34.77
62847;BME280;49477;35.676;139.586;2023-07-29T10:30:16;101083.62;;;37.22;34.82
62847;BME280;49477;35.676;139.586;2023-07-29T10:32:47;101085.99;;;36.80;34.90
62847;BME280;49477;35.676;139.586;2023-07-29T10:35:18;101085.71;;;37.28;34.70
62847;BME280;49477;35.676;139.586;2023-07-29T10:37:48;101094.39;;;36.98;35.06
62847;BME280;49477;35.676;139.586;2023-07-29T10:40:17;101096.47;;;36.75;35.41
62847;BME280;49477;35.676;139.586;2023-07-29T10:43:01;101097.38;;;36.61;35.25
62847;BME280;49477;35.676;139.586;2023-07-29T10:45:38;101098.25;;;36.60;35.62
62847;BME280;49477;35.676;139.586;2023-07-29T10:48:11;101096.17;;;36.82;35.29
62847;BME280;49477;35.676;139.586;2023-07-29T10:50:41;101097.00;;;36.46;35.81
62847;BME280;49477;35.676;139.586;2023-07-29T10:53:10;101097.55;;;36.84;36.24
62847;BME280;49477;35.676;139.586;2023-07-29T10:55:40;101101.70;;;36.64;36.41
62847;BME280;49477;35.676;139.586;2023-07-29T10:58:14;101111.57;;;36.89;36.53
62847;BME280;49477;35.676;139.586;2023-07-29T11:00:44;101112.32;;;36.64;36.46
62847;BME280;49477;35.676;139.586;2023-07-29T11:03:15;101114.30;;;36.38;36.39
62847;BME280;49477;35.676;139.586;2023-07-29T11:05:47;101111.18;;;36.24;36.55
62847;BME280;49477;35.676;139.586;2023-07-29T11:08:24;101116.56;;;36.65;36.33
62847;BME280;49477;35.676;139.586;2023-07-29T11:11:02;101118.04;;;36.26;36.56
62847;BME280;49477;35.676;139.586;2023-07-29T11:13:34;101122.30;;;36.27;36.59
62847;BME280;49477;35.676;139.586;2023-07-29T11:16:04;101124.64;;;36.06;36.86
62847;BME280;49477;35.676;139.586;2023-07-29T11:18:35;101126.96;;;36.35;36.40
62847;BME280;49477;35.676;139.586;2023-07-29T11:21:05;101128.17;;;36.65;35.74
62847;BME280;49477;35.676;139.586;2023-07-29T11:23:35;101120.11;;;36.20;35.80
62847;BME280;49477;35.676;139.586;2023-07-29T11:26:05;101121.86;;;36.28;36.38
62847;BME280;49477;35.676;139.586;2023-07-29T11:28:41;101123.68;;;35.93;36.19
62847;BME280;49477;35.676;139.586;2023-07-29T11:31:11;101121.09;;;36.35;36.26
62847;BME280;49477;35.676;139.586;2023-07-29T11:33:41;101118.01;;;36.32;35.96
62847;BME280;49477;35.676;139.586;2023-07-29T11:36:20;101109.65;;;36.37;36.26
62847;BME280;49477;35.676;139.586;2023-07-29T11:38:50;101111.03;;;36.56;35.87
62847;BME280;49477;35.676;139.586;2023-07-29T11:41:23;101113.44;;;36.33;35.87
62847;BME280;49477;35.676;139.586;2023-07-29T11:43:53;101115.21;;;36.30;35.92
62847;BME280;49477;35.676;139.586;2023-07-29T11:46:24;101117.51;;;36.64;35.44
62847;BME280;49477;35.676;139.586;2023-07-29T11:48:55;101118.61;;;36.37;35.53
62847;BME280;49477;35.676;139.586;2023-07-29T11:51:26;101123.12;;;36.69;35.59
62847;BME280;49477;35.676;139.586;2023-07-29T11:53:56;101126.69;;;36.39;35.67
62847;BME280;49477;35.676;139.586;2023-07-29T11:56:28;101126.38;;;36.14;36.38
62847;BME280;49477;35.676;139.586;2023-07-29T11:58:58;101121.33;;;36.16;36.04
62847;BME280;49477;35.676;139.586;2023-07-29T12:01:29;101121.78;;;36.23;36.29
62847;BME280;49477;35.676;139.586;2023-07-29T12:03:58;101122.06;;;35.94;36.38
62847;BME280;49477;35.676;139.586;2023-07-29T12:06:28;101118.27;;;36.18;36.27
62847;BME280;49477;35.676;139.586;2023-07-29T12:08:58;101118.84;;;35.87;36.28
62847;BME280;49477;35.676;139.586;2023-07-29T12:11:27;101118.99;;;36.07;35.97
62847;BME280;49477;35.676;139.586;2023-07-29T12:13:57;101121.94;;;36.19;36.13
62847;BME280;49477;35.676;139.586;2023-07-29T12:16:41;101133.67;;;36.02;36.55
62847;BME280;49477;35.676;139.586;2023-07-29T12:19:13;101130.21;;;35.84;36.79
62847;BME280;49477;35.676;139.586;2023-07-29T12:21:44;101128.34;;;35.57;36.94
62847;BME280;49477;35.676;139.586;2023-07-29T12:24:14;101127.39;;;35.81;36.96
62847;BME280;49477;35.676;139.586;2023-07-29T12:26:43;101133.59;;;35.43;37.19
62847;BME280;49477;35.676;139.586;2023-07-29T12:29:15;101136.32;;;35.62;37.38
62847;BME280;49477;35.676;139.586;2023-07-29T12:31:45;101141.55;;;35.59;36.96
62847;BME280;49477;35.676;139.586;2023-07-29T12:34:19;101141.84;;;35.74;36.99
62847;BME280;49477;35.676;139.586;2023-07-29T12:36:50;101135.64;;;35.65;36.84
62847;BME280;49477;35.676;139.586;2023-07-29T12:39:21;101132.91;;;35.70;36.60
62847;BME280;49477;35.676;139.586;2023-07-29T12:41:53;101132.25;;;35.28;37.11
62847;BME280;49477;35.676;139.586;2023-07-29T12:44:25;101132.67;;;36.08;36.52
62847;BME280;49477;35.676;139.586;2023-07-29T12:46:55;101134.43;;;35.48;36.69
62847;BME280;49477;35.676;139.586;2023-07-29T12:49:25;101134.58;;;35.56;36.46